sensor_id;sensor_type;location;lat;lon;timestamp;temperature;humidity
19728;DHT22;10015;52.530;13.390;2022-11-15T00:00:09;7.80;99.90
19728;DHT22;10015;52.530;13.390;2022-11-15T05:15:28;6.50;99.90
19728;DHT22;10015;52.530;13.390;2022-11-15T05:18:13;6.40;99.90
19728;DHT22;10015;52.530;13.390;2022-11-15T05:21:05;6.50;99.90
19728;DHT22;10015;52.530;13.390;2022-11-15T05:23:51;6.60;99.90
19728;DHT22;10015;52.530;13.390;2022-11-15T05:26:37;6.70;99.90
19728;DHT22;10015;52.530;13.390;2022-11-15T05:29:24;6.90;99.90
19728;DHT22;10015;52.530;13.390;2022-11-15T05:32:09;6.80;99.90
19728;DHT22;10015;52.530;13.390;2022-11-15T05:34:57;6.90;99.90
19728;DHT22;10015;52.530;13.390;2022-11-15T05:37:41;6.80;99.90
19728;DHT22;10015;52.530;13.390;2022-11-15T05:40:27;6.70;99.90
19728;DHT22;10015;52.530;13.390;2022-11-15T05:43:13;6.70;99.90
19728;DHT22;10015;52.530;13.390;2022-11-15T05:45:59;6.60;99.90
19728;DHT22;10015;52.530;13.390;2022-11-15T05:48:48;6.60;99.90
19728;DHT22;10015;52.530;13.390;2022-11-15T05:51:34;6.80;99.90
19728;DHT22;10015;52.530;13.390;2022-11-15T05:54:20;6.90;99.90
19728;DHT22;10015;52.530;13.390;2022-11-15T05:57:05;6.90;99.90
19728;DHT22;10015;52.530;13.390;2022-11-15T05:59:50;6.80;99.90
19728;DHT22;10015;52.530;13.390;2022-11-15T06:02:35;6.90;99.90
19728;DHT22;10015;52.530;13.390;2022-11-15T06:05:20;7.00;99.90
19728;DHT22;10015;52.530;13.390;2022-11-15T06:08:05;6.80;99.90
19728;DHT22;10015;52.530;13.390;2022-11-15T06:10:50;6.80;99.90
19728;DHT22;10015;52.530;13.390;2022-11-15T06:13:34;6.90;99.90
19728;DHT22;10015;52.530;13.390;2022-11-15T06:16:19;6.90;99.90
19728;DHT22;10015;52.530;13.390;2022-11-15T06:19:06;6.80;99.90
19728;DHT22;10015;52.530;13.390;2022-11-15T06:21:50;6.90;99.90
19728;DHT22;10015;52.530;13.390;2022-11-15T06:24:35;6.80;99.90
19728;DHT22;10015;52.530;13.390;2022-11-15T06:27:20;6.70;99.90
19728;DHT22;10015;52.530;13.390;2022-11-15T06:30:05;6.70;99.90
19728;DHT22;10015;52.530;13.390;2022-11-15T06:32:50;6.70;99.90
19728;DHT22;10015;52.530;13.390;2022-11-15T06:35:36;6.70;99.90
19728;DHT22;10015;52.530;13.390;2022-11-15T06:38:20;6.60;99.90
19728;DHT22;10015;52.530;13.390;2022-11-15T06:41:07;6.70;99.90
19728;DHT22;10015;52.530;13.390;2022-11-15T06:43:52;6.60;99.90
19728;DHT22;10015;52.530;13.390;2022-11-15T06:46:37;6.60;99.90
19728;DHT22;10015;52.530;13.390;2022-11-15T06:49:22;6.60;99.90
19728;DHT22;10015;52.530;13.390;2022-11-15T06:52:06;6.60;99.90
19728;DHT22;10015;52.530;13.390;2022-11-15T06:54:51;6.60;99.90
19728;DHT22;10015;52.530;13.390;2022-11-15T06:57:36;6.60;99.90
19728;DHT22;10015;52.530;13.390;2022-11-15T07:00:21;6.50;99.90
19728;DHT22;10015;52.530;13.390;2022-11-15T07:03:07;6.60;99.90
19728;DHT22;10015;52.530;13.390;2022-11-15T07:05:56;6.60;99.90
19728;DHT22;10015;52.530;13.390;2022-11-15T07:08:41;6.60;99.90
19728;DHT22;10015;52.530;13.390;2022-11-15T07:11:26;6.60;99.90
19728;DHT22;10015;52.530;13.390;2022-11-15T07:14:10;6.60;99.90
19728;DHT22;10015;52.530;13.390;2022-11-15T07:16:55;6.60;99.90
19728;DHT22;10015;52.530;13.390;2022-11-15T07:19:40;6.80;99.90
19728;DHT22;10015;52.530;13.390;2022-11-15T07:22:25;6.90;99.90
19728;DHT22;10015;52.530;13.390;2022-11-15T07:25:10;6.90;99.90
19728;DHT22;10015;52.530;13.390;2022-11-15T07:27:56;6.80;99.90
19728;DHT22;10015;52.530;13.390;2022-11-15T07:30:41;6.70;99.90
19728;DHT22;10015;52.530;13.390;2022-11-15T07:33:25;6.80;99.90
19728;DHT22;10015;52.530;13.390;2022-11-15T07:36:10;6.90;99.90
19728;DHT22;10015;52.530;13.390;2022-11-15T07:38:55;7.10;99.90
19728;DHT22;10015;52.530;13.390;2022-11-15T07:41:40;7.30;99.90
19728;DHT22;10015;52.530;13.390;2022-11-15T07:44:25;7.10;99.90
19728;DHT22;10015;52.530;13.390;2022-11-15T07:47:09;7.10;99.90
19728;DHT22;10015;52.530;13.390;2022-11-15T07:49:54;7.30;99.90
19728;DHT22;10015;52.530;13.390;2022-11-15T07:52:39;7.30;99.90
19728;DHT22;10015;52.530;13.390;2022-11-15T07:55:26;7.30;99.90
19728;DHT22;10015;52.530;13.390;2022-11-15T07:58:11;7.40;99.90
19728;DHT22;10015;52.530;13.390;2022-11-15T08:00:56;7.30;99.90
19728;DHT22;10015;52.530;13.390;2022-11-15T08:03:43;7.30;99.90
19728;DHT22;10015;52.530;13.390;2022-11-15T08:06:31;7.20;99.90
19728;DHT22;10015;52.530;13.390;2022-11-15T08:09:15;7.40;99.90
19728;DHT22;10015;52.530;13.390;2022-11-15T08:12:00;7.50;99.90
19728;DHT22;10015;52.530;13.390;2022-11-15T08:14:45;7.60;99.90
19728;DHT22;10015;52.530;13.390;2022-11-15T08:17:29;7.70;99.90
19728;DHT22;10015;52.530;13.390;2022-11-15T08:20:18;7.60;99.90
19728;DHT22;10015;52.530;13.390;2022-11-15T08:23:04;7.70;99.90
19728;DHT22;10015;52.530;13.390;2022-11-15T08:25:49;7.90;99.90
19728;DHT22;10015;52.530;13.390;2022-11-15T08:28:34;8.00;99.90
19728;DHT22;10015;52.530;13.390;2022-11-15T08:31:19;7.90;99.90
19728;DHT22;10015;52.530;13.390;2022-11-15T08:34:04;8.00;99.90
19728;DHT22;10015;52.530;13.390;2022-11-15T08:36:51;8.00;99.90
19728;DHT22;10015;52.530;13.390;2022-11-15T08:39:35;8.10;99.90
19728;DHT22;10015;52.530;13.390;2022-11-15T08:42:20;8.20;99.90
19728;DHT22;10015;52.530;13.390;2022-11-15T08:45:06;8.20;99.90
19728;DHT22;10015;52.530;13.390;2022-11-15T08:47:51;8.20;99.90
19728;DHT22;10015;52.530;13.390;2022-11-15T08:50:36;8.30;99.90
19728;DHT22;10015;52.530;13.390;2022-11-15T08:53:22;8.50;99.90
19728;DHT22;10015;52.530;13.390;2022-11-15T08:56:09;8.60;99.90
19728;DHT22;10015;52.530;13.390;2022-11-15T08:58:54;8.70;99.90
19728;DHT22;10015;52.530;13.390;2022-11-15T09:01:42;8.80;99.90
19728;DHT22;10015;52.530;13.390;2022-11-15T09:04:29;9.00;99.90
19728;DHT22;10015;52.530;13.390;2022-11-15T09:07:13;9.10;99.90
19728;DHT22;10015;52.530;13.390;2022-11-15T09:09:58;9.30;99.90
19728;DHT22;10015;52.530;13.390;2022-11-15T09:12:43;9.50;99.90
19728;DHT22;10015;52.530;13.390;2022-11-15T09:15:28;9.60;99.90
19728;DHT22;10015;52.530;13.390;2022-11-15T09:18:13;9.60;99.90
19728;DHT22;10015;52.530;13.390;2022-11-15T09:20:58;9.50;99.90
19728;DHT22;10015;52.530;13.390;2022-11-15T09:23:43;9.60;99.90
19728;DHT22;10015;52.530;13.390;2022-11-15T09:26:28;9.60;99.90
19728;DHT22;10015;52.530;13.390;2022-11-15T09:29:15;9.50;99.90
19728;DHT22;10015;52.530;13.390;2022-11-15T09:32:00;9.60;99.90
19728;DHT22;10015;52.530;13.390;2022-11-15T09:34:45;9.60;99.90
19728;DHT22;10015;52.530;13.390;2022-11-15T09:37:32;9.60;99.90
19728;DHT22;10015;52.530;13.390;2022-11-15T09:40:17;9.80;99.90
19728;DHT22;10015;52.530;13.390;2022-11-15T09:49:09;10.20;99.90
19728;DHT22;10015;52.530;13.390;2022-11-15T09:51:44;10.20;99.90
19728;DHT22;10015;52.530;13.390;2022-11-15T09:57:14;10.10;99.90
19728;DHT22;10015;52.530;13.390;2022-11-15T10:05:22;10.20;99.90
19728;DHT22;10015;52.530;13.390;2022-11-15T10:11:03;10.40;99.90
19728;DHT22;10015;52.530;13.390;2022-11-15T10:13:36;10.50;99.90
19728;DHT22;10015;52.530;13.390;2022-11-15T10:19:23;10.50;99.90
19728;DHT22;10015;52.530;13.390;2022-11-15T10:24:50;10.50;99.90
19728;DHT22;10015;52.530;13.390;2022-11-15T10:27:20;10.60;99.90
19728;DHT22;10015;52.530;13.390;2022-11-15T10:29:48;10.60;99.90
19728;DHT22;10015;52.530;13.390;2022-11-15T10:32:19;10.60;99.90
19728;DHT22;10015;52.530;13.390;2022-11-15T10:34:47;10.60;99.90
19728;DHT22;10015;52.530;13.390;2022-11-15T10:37:13;10.70;99.90
19728;DHT22;10015;52.530;13.390;2022-11-15T10:39:40;10.80;99.90
19728;DHT22;10015;52.530;13.390;2022-11-15T10:42:25;10.90;99.90
19728;DHT22;10015;52.530;13.390;2022-11-15T10:44:52;11.00;99.90
19728;DHT22;10015;52.530;13.390;2022-11-15T10:47:32;11.00;99.90
19728;DHT22;10015;52.530;13.390;2022-11-15T10:50:07;11.00;99.90
19728;DHT22;10015;52.530;13.390;2022-11-15T10:52:35;11.00;99.90
19728;DHT22;10015;52.530;13.390;2022-11-15T10:57:38;11.00;99.90
19728;DHT22;10015;52.530;13.390;2022-11-15T11:00:07;11.10;99.90
19728;DHT22;10015;52.530;13.390;2022-11-15T11:08:03;11.10;99.90
19728;DHT22;10015;52.530;13.390;2022-11-15T11:10:30;11.20;99.90
19728;DHT22;10015;52.530;13.390;2022-11-15T11:16:33;11.20;99.90
19728;DHT22;10015;52.530;13.390;2022-11-15T11:18:55;11.40;99.90
19728;DHT22;10015;52.530;13.390;2022-11-15T11:24:45;11.50;99.90
19728;DHT22;10015;52.530;13.390;2022-11-15T11:27:48;11.60;99.90
19728;DHT22;10015;52.530;13.390;2022-11-15T11:30:32;11.70;99.90
19728;DHT22;10015;52.530;13.390;2022-11-15T11:36:11;11.70;99.90
19728;DHT22;10015;52.530;13.390;2022-11-15T11:38:50;11.90;99.90
19728;DHT22;10015;52.530;13.390;2022-11-15T11:44:06;11.90;99.90
19728;DHT22;10015;52.530;13.390;2022-11-15T11:46:48;12.00;99.90
19728;DHT22;10015;52.530;13.390;2022-11-15T11:49:20;12.00;99.90
19728;DHT22;10015;52.530;13.390;2022-11-15T11:57:56;12.10;99.90
19728;DHT22;10015;52.530;13.390;2022-11-15T12:00:27;12.10;99.90
19728;DHT22;10015;52.530;13.390;2022-11-15T12:03:09;12.20;99.90
19728;DHT22;10015;52.530;13.390;2022-11-15T12:08:43;12.30;99.90
19728;DHT22;10015;52.530;13.390;2022-11-15T12:11:29;12.20;99.90
19728;DHT22;10015;52.530;13.390;2022-11-15T12:13:59;12.20;99.90
19728;DHT22;10015;52.530;13.390;2022-11-15T12:16:31;12.30;99.90
19728;DHT22;10015;52.530;13.390;2022-11-15T12:19:02;12.20;99.90
19728;DHT22;10015;52.530;13.390;2022-11-15T12:24:34;12.30;99.90
19728;DHT22;10015;52.530;13.390;2022-11-15T12:27:20;12.40;99.90
19728;DHT22;10015;52.530;13.390;2022-11-15T12:29:52;12.40;99.90
19728;DHT22;10015;52.530;13.390;2022-11-15T12:32:35;12.40;99.90
19728;DHT22;10015;52.530;13.390;2022-11-15T12:35:04;12.40;99.90
19728;DHT22;10015;52.530;13.390;2022-11-15T12:37:55;12.40;99.90
19728;DHT22;10015;52.530;13.390;2022-11-15T12:40:36;12.60;99.90
19728;DHT22;10015;52.530;13.390;2022-11-15T12:45:43;12.50;99.90
19728;DHT22;10015;52.530;13.390;2022-11-15T12:58:53;12.60;99.90
19728;DHT22;10015;52.530;13.390;2022-11-15T13:06:53;12.60;99.90
19728;DHT22;10015;52.530;13.390;2022-11-15T13:12:08;12.50;99.90
19728;DHT22;10015;52.530;13.390;2022-11-15T13:14:51;12.50;99.90
19728;DHT22;10015;52.530;13.390;2022-11-15T13:17:54;12.60;99.90
19728;DHT22;10015;52.530;13.390;2022-11-15T13:20:30;12.60;99.90
19728;DHT22;10015;52.530;13.390;2022-11-15T13:23:02;12.60;99.90
19728;DHT22;10015;52.530;13.390;2022-11-15T13:35:51;12.70;99.90
19728;DHT22;10015;52.530;13.390;2022-11-15T13:38:25;12.70;99.90
19728;DHT22;10015;52.530;13.390;2022-11-15T13:40:56;12.70;99.90
19728;DHT22;10015;52.530;13.390;2022-11-15T13:48:31;12.70;99.90
19728;DHT22;10015;52.530;13.390;2022-11-15T13:51:01;12.70;99.90
19728;DHT22;10015;52.530;13.390;2022-11-15T13:53:28;12.80;99.90
19728;DHT22;10015;52.530;13.390;2022-11-15T13:55:56;12.80;99.90
19728;DHT22;10015;52.530;13.390;2022-11-15T13:58:23;12.70;99.90
19728;DHT22;10015;52.530;13.390;2022-11-15T14:00:59;12.70;99.90
19728;DHT22;10015;52.530;13.390;2022-11-15T14:04:02;12.70;99.90
19728;DHT22;10015;52.530;13.390;2022-11-15T14:06:29;12.70;99.90
19728;DHT22;10015;52.530;13.390;2022-11-15T14:11:53;12.70;99.90
19728;DHT22;10015;52.530;13.390;2022-11-15T14:14:24;12.80;99.90
19728;DHT22;10015;52.530;13.390;2022-11-15T14:16:58;12.70;99.90
19728;DHT22;10015;52.530;13.390;2022-11-15T14:22:11;12.80;99.90
19728;DHT22;10015;52.530;13.390;2022-11-15T14:24:38;12.70;99.90
19728;DHT22;10015;52.530;13.390;2022-11-15T14:29:50;12.80;99.90
19728;DHT22;10015;52.530;13.390;2022-11-15T14:32:25;12.70;99.90
19728;DHT22;10015;52.530;13.390;2022-11-15T14:35:00;12.60;99.90
19728;DHT22;10015;52.530;13.390;2022-11-15T14:37:28;12.60;99.90
19728;DHT22;10015;52.530;13.390;2022-11-15T14:39:54;12.60;99.90
19728;DHT22;10015;52.530;13.390;2022-11-15T14:42:22;12.60;99.90
19728;DHT22;10015;52.530;13.390;2022-11-15T14:44:49;12.60;99.90
19728;DHT22;10015;52.530;13.390;2022-11-15T14:47:15;12.70;99.90
19728;DHT22;10015;52.530;13.390;2022-11-15T14:49:41;12.70;99.90
19728;DHT22;10015;52.530;13.390;2022-11-15T14:52:31;12.60;99.90
19728;DHT22;10015;52.530;13.390;2022-11-15T14:55:03;12.50;99.90
19728;DHT22;10015;52.530;13.390;2022-11-15T14:57:29;12.50;99.90
19728;DHT22;10015;52.530;13.390;2022-11-15T14:59:56;12.40;99.90
19728;DHT22;10015;52.530;13.390;2022-11-15T15:02:24;12.30;99.90
19728;DHT22;10015;52.530;13.390;2022-11-15T15:04:51;12.30;99.90
19728;DHT22;10015;52.530;13.390;2022-11-15T15:07:18;12.30;99.90
19728;DHT22;10015;52.530;13.390;2022-11-15T15:09:44;12.30;99.90
19728;DHT22;10015;52.530;13.390;2022-11-15T15:12:16;12.30;99.90
19728;DHT22;10015;52.530;13.390;2022-11-15T15:14:42;12.30;99.90
19728;DHT22;10015;52.530;13.390;2022-11-15T15:17:08;12.30;99.90
19728;DHT22;10015;52.530;13.390;2022-11-15T15:19:34;12.30;99.90
19728;DHT22;10015;52.530;13.390;2022-11-15T15:22:00;12.30;99.90
19728;DHT22;10015;52.530;13.390;2022-11-15T15:24:27;12.30;99.90
19728;DHT22;10015;52.530;13.390;2022-11-15T15:26:53;12.20;99.90
19728;DHT22;10015;52.530;13.390;2022-11-15T15:29:19;12.20;99.90
19728;DHT22;10015;52.530;13.390;2022-11-15T15:31:44;12.20;99.90
19728;DHT22;10015;52.530;13.390;2022-11-15T15:34:10;12.10;99.90
19728;DHT22;10015;52.530;13.390;2022-11-15T15:36:36;12.00;99.90
19728;DHT22;10015;52.530;13.390;2022-11-15T15:39:02;12.00;99.90
19728;DHT22;10015;52.530;13.390;2022-11-15T15:41:28;11.90;99.90
19728;DHT22;10015;52.530;13.390;2022-11-15T15:43:54;12.00;99.90
19728;DHT22;10015;52.530;13.390;2022-11-15T15:46:20;11.90;99.90
19728;DHT22;10015;52.530;13.390;2022-11-15T15:48:47;11.80;99.90
19728;DHT22;10015;52.530;13.390;2022-11-15T15:51:13;11.90;99.90
19728;DHT22;10015;52.530;13.390;2022-11-15T15:53:39;11.90;99.90
19728;DHT22;10015;52.530;13.390;2022-11-15T15:56:05;12.00;99.90
19728;DHT22;10015;52.530;13.390;2022-11-15T15:58:34;11.90;99.90
19728;DHT22;10015;52.530;13.390;2022-11-15T16:01:00;11.90;99.90
19728;DHT22;10015;52.530;13.390;2022-11-15T16:03:26;11.80;99.90
19728;DHT22;10015;52.530;13.390;2022-11-15T16:05:53;11.70;99.90
19728;DHT22;10015;52.530;13.390;2022-11-15T16:08:21;11.80;99.90
19728;DHT22;10015;52.530;13.390;2022-11-15T16:10:48;11.80;99.90
19728;DHT22;10015;52.530;13.390;2022-11-15T16:13:14;11.80;99.90
19728;DHT22;10015;52.530;13.390;2022-11-15T16:15:41;11.80;99.90
19728;DHT22;10015;52.530;13.390;2022-11-15T16:18:15;11.70;99.90
19728;DHT22;10015;52.530;13.390;2022-11-15T16:20:47;11.70;99.90
19728;DHT22;10015;52.530;13.390;2022-11-15T16:23:17;11.70;99.90
19728;DHT22;10015;52.530;13.390;2022-11-15T16:25:48;11.60;99.90
19728;DHT22;10015;52.530;13.390;2022-11-15T16:28:26;11.60;99.90
19728;DHT22;10015;52.530;13.390;2022-11-15T16:31:04;11.70;99.90
19728;DHT22;10015;52.530;13.390;2022-11-15T16:33:31;11.60;99.90
19728;DHT22;10015;52.530;13.390;2022-11-15T16:35:59;11.60;99.90
19728;DHT22;10015;52.530;13.390;2022-11-15T16:38:25;11.60;99.90
19728;DHT22;10015;52.530;13.390;2022-11-15T16:40:52;11.60;99.90
19728;DHT22;10015;52.530;13.390;2022-11-15T16:43:18;11.60;99.90
19728;DHT22;10015;52.530;13.390;2022-11-15T16:45:46;11.40;99.90
19728;DHT22;10015;52.530;13.390;2022-11-15T16:48:24;11.40;99.90
19728;DHT22;10015;52.530;13.390;2022-11-15T16:50:53;11.40;99.90
19728;DHT22;10015;52.530;13.390;2022-11-15T16:53:19;11.40;99.90
19728;DHT22;10015;52.530;13.390;2022-11-15T16:55:45;11.30;99.90
19728;DHT22;10015;52.530;13.390;2022-11-15T16:58:11;11.20;99.90
19728;DHT22;10015;52.530;13.390;2022-11-15T17:00:37;11.10;99.90
19728;DHT22;10015;52.530;13.390;2022-11-15T17:03:03;11.10;99.90
19728;DHT22;10015;52.530;13.390;2022-11-15T17:05:30;11.00;99.90
19728;DHT22;10015;52.530;13.390;2022-11-15T17:07:56;11.00;99.90
19728;DHT22;10015;52.530;13.390;2022-11-15T17:10:24;11.10;99.90
19728;DHT22;10015;52.530;13.390;2022-11-15T17:12:52;11.10;99.90
19728;DHT22;10015;52.530;13.390;2022-11-15T17:15:20;11.10;99.90
19728;DHT22;10015;52.530;13.390;2022-11-15T17:17:53;11.10;99.90
19728;DHT22;10015;52.530;13.390;2022-11-15T17:20:22;11.10;99.90
19728;DHT22;10015;52.530;13.390;2022-11-15T17:22:49;11.10;99.90
19728;DHT22;10015;52.530;13.390;2022-11-15T17:25:15;11.10;99.90
19728;DHT22;10015;52.530;13.390;2022-11-15T17:27:41;11.10;99.90
19728;DHT22;10015;52.530;13.390;2022-11-15T17:30:13;11.00;99.90
19728;DHT22;10015;52.530;13.390;2022-11-15T17:32:41;11.00;99.90
19728;DHT22;10015;52.530;13.390;2022-11-15T17:35:09;11.10;99.90
19728;DHT22;10015;52.530;13.390;2022-11-15T17:37:36;11.00;99.90
19728;DHT22;10015;52.530;13.390;2022-11-15T17:40:02;11.00;99.90
19728;DHT22;10015;52.530;13.390;2022-11-15T17:42:29;11.00;99.90
19728;DHT22;10015;52.530;13.390;2022-11-15T17:44:55;11.00;99.90
19728;DHT22;10015;52.530;13.390;2022-11-15T17:47:21;11.00;99.90
19728;DHT22;10015;52.530;13.390;2022-11-15T17:49:47;10.90;99.90
19728;DHT22;10015;52.530;13.390;2022-11-15T17:52:13;10.80;99.90
19728;DHT22;10015;52.530;13.390;2022-11-15T17:54:39;10.70;99.90
19728;DHT22;10015;52.530;13.390;2022-11-15T17:57:05;10.70;99.90
19728;DHT22;10015;52.530;13.390;2022-11-15T17:59:32;10.70;99.90
19728;DHT22;10015;52.530;13.390;2022-11-15T18:01:58;10.70;99.90
19728;DHT22;10015;52.530;13.390;2022-11-15T18:04:24;10.70;99.90
19728;DHT22;10015;52.530;13.390;2022-11-15T18:06:53;10.60;99.90
19728;DHT22;10015;52.530;13.390;2022-11-15T18:09:20;10.60;99.90
19728;DHT22;10015;52.530;13.390;2022-11-15T18:11:47;10.50;99.90
19728;DHT22;10015;52.530;13.390;2022-11-15T18:14:17;10.50;99.90
19728;DHT22;10015;52.530;13.390;2022-11-15T18:16:43;10.40;99.90
19728;DHT22;10015;52.530;13.390;2022-11-15T18:19:10;10.40;99.90
19728;DHT22;10015;52.530;13.390;2022-11-15T18:21:39;10.30;99.90
19728;DHT22;10015;52.530;13.390;2022-11-15T18:24:29;10.30;99.90
19728;DHT22;10015;52.530;13.390;2022-11-15T18:26:56;10.30;99.90
19728;DHT22;10015;52.530;13.390;2022-11-15T18:29:23;10.30;99.90
19728;DHT22;10015;52.530;13.390;2022-11-15T18:31:49;10.20;99.90
19728;DHT22;10015;52.530;13.390;2022-11-15T18:34:21;10.20;99.90
19728;DHT22;10015;52.530;13.390;2022-11-15T18:36:51;10.20;99.90
19728;DHT22;10015;52.530;13.390;2022-11-15T18:39:17;10.10;99.90
19728;DHT22;10015;52.530;13.390;2022-11-15T18:41:44;10.20;99.90
19728;DHT22;10015;52.530;13.390;2022-11-15T18:44:11;10.10;99.90
19728;DHT22;10015;52.530;13.390;2022-11-15T18:46:37;10.10;99.90
19728;DHT22;10015;52.530;13.390;2022-11-15T18:49:05;10.00;99.90
19728;DHT22;10015;52.530;13.390;2022-11-15T18:51:35;9.90;99.90
19728;DHT22;10015;52.530;13.390;2022-11-15T18:54:03;9.90;99.90
19728;DHT22;10015;52.530;13.390;2022-11-15T18:56:30;9.80;99.90
19728;DHT22;10015;52.530;13.390;2022-11-15T18:58:58;9.70;99.90
19728;DHT22;10015;52.530;13.390;2022-11-15T19:01:27;9.70;99.90
19728;DHT22;10015;52.530;13.390;2022-11-15T19:03:56;9.60;99.90
19728;DHT22;10015;52.530;13.390;2022-11-15T19:06:24;9.60;99.90
19728;DHT22;10015;52.530;13.390;2022-11-15T19:08:53;9.60;99.90
19728;DHT22;10015;52.530;13.390;2022-11-15T19:11:30;9.50;99.90
19728;DHT22;10015;52.530;13.390;2022-11-15T19:13:58;9.50;99.90
19728;DHT22;10015;52.530;13.390;2022-11-15T19:16:26;9.40;99.90
19728;DHT22;10015;52.530;13.390;2022-11-15T19:18:57;9.40;99.90
19728;DHT22;10015;52.530;13.390;2022-11-15T19:21:25;9.40;99.90
19728;DHT22;10015;52.530;13.390;2022-11-15T19:23:52;9.30;99.90
19728;DHT22;10015;52.530;13.390;2022-11-15T19:26:20;9.20;99.90
19728;DHT22;10015;52.530;13.390;2022-11-15T19:28:52;9.10;99.90
19728;DHT22;10015;52.530;13.390;2022-11-15T19:31:19;9.10;99.90
19728;DHT22;10015;52.530;13.390;2022-11-15T19:33:46;9.00;99.90
19728;DHT22;10015;52.530;13.390;2022-11-15T19:36:13;9.00;99.90
19728;DHT22;10015;52.530;13.390;2022-11-15T19:38:40;9.00;99.90
19728;DHT22;10015;52.530;13.390;2022-11-15T19:41:09;9.00;99.90
19728;DHT22;10015;52.530;13.390;2022-11-15T19:43:36;8.90;99.90
19728;DHT22;10015;52.530;13.390;2022-11-15T19:46:04;8.90;99.90
19728;DHT22;10015;52.530;13.390;2022-11-15T19:48:32;8.90;99.90
19728;DHT22;10015;52.530;13.390;2022-11-15T19:51:03;8.90;99.90
19728;DHT22;10015;52.530;13.390;2022-11-15T19:53:31;8.90;99.90
19728;DHT22;10015;52.530;13.390;2022-11-15T19:56:06;8.90;99.90
19728;DHT22;10015;52.530;13.390;2022-11-15T19:58:33;8.90;99.90
19728;DHT22;10015;52.530;13.390;2022-11-15T20:01:05;9.00;99.90
19728;DHT22;10015;52.530;13.390;2022-11-15T20:03:32;8.90;99.90
19728;DHT22;10015;52.530;13.390;2022-11-15T20:06:07;9.00;99.90
19728;DHT22;10015;52.530;13.390;2022-11-15T20:08:34;9.00;99.90
19728;DHT22;10015;52.530;13.390;2022-11-15T20:11:01;9.00;99.90
19728;DHT22;10015;52.530;13.390;2022-11-15T20:13:28;9.10;99.90
19728;DHT22;10015;52.530;13.390;2022-11-15T20:15:54;9.00;99.90
19728;DHT22;10015;52.530;13.390;2022-11-15T20:18:22;8.80;99.90
19728;DHT22;10015;52.530;13.390;2022-11-15T20:20:49;8.80;99.90
19728;DHT22;10015;52.530;13.390;2022-11-15T20:23:16;8.80;99.90
19728;DHT22;10015;52.530;13.390;2022-11-15T20:25:44;8.80;99.90
19728;DHT22;10015;52.530;13.390;2022-11-15T20:28:18;8.70;99.90
19728;DHT22;10015;52.530;13.390;2022-11-15T20:30:46;8.70;99.90
19728;DHT22;10015;52.530;13.390;2022-11-15T20:33:13;8.60;99.90
19728;DHT22;10015;52.530;13.390;2022-11-15T20:35:40;8.60;99.90
19728;DHT22;10015;52.530;13.390;2022-11-15T20:38:06;8.60;99.90
19728;DHT22;10015;52.530;13.390;2022-11-15T20:40:33;8.60;99.90
19728;DHT22;10015;52.530;13.390;2022-11-15T20:42:59;8.60;99.90
19728;DHT22;10015;52.530;13.390;2022-11-15T20:45:25;8.60;99.90
19728;DHT22;10015;52.530;13.390;2022-11-15T20:47:54;8.60;99.90
19728;DHT22;10015;52.530;13.390;2022-11-15T20:50:22;8.60;99.90
19728;DHT22;10015;52.530;13.390;2022-11-15T20:52:49;8.60;99.90
19728;DHT22;10015;52.530;13.390;2022-11-15T20:55:15;8.60;99.90
19728;DHT22;10015;52.530;13.390;2022-11-15T20:57:41;8.50;99.90
19728;DHT22;10015;52.530;13.390;2022-11-15T21:00:08;8.40;99.90
19728;DHT22;10015;52.530;13.390;2022-11-15T21:02:35;8.50;99.90
19728;DHT22;10015;52.530;13.390;2022-11-15T21:05:01;8.50;99.90
19728;DHT22;10015;52.530;13.390;2022-11-15T21:07:27;8.50;99.90
19728;DHT22;10015;52.530;13.390;2022-11-15T21:09:53;8.50;99.90
19728;DHT22;10015;52.530;13.390;2022-11-15T21:12:38;8.50;99.90
19728;DHT22;10015;52.530;13.390;2022-11-15T21:15:04;8.50;99.90
19728;DHT22;10015;52.530;13.390;2022-11-15T21:17:30;8.50;99.90
19728;DHT22;10015;52.530;13.390;2022-11-15T21:19:56;8.50;99.90
19728;DHT22;10015;52.530;13.390;2022-11-15T21:22:22;8.50;99.90
19728;DHT22;10015;52.530;13.390;2022-11-15T21:24:48;8.60;99.90
19728;DHT22;10015;52.530;13.390;2022-11-15T21:27:14;8.60;99.90
19728;DHT22;10015;52.530;13.390;2022-11-15T21:29:40;8.60;99.90
19728;DHT22;10015;52.530;13.390;2022-11-15T21:32:10;8.60;99.90
19728;DHT22;10015;52.530;13.390;2022-11-15T21:34:37;8.60;99.90
19728;DHT22;10015;52.530;13.390;2022-11-15T21:37:03;8.60;99.90
19728;DHT22;10015;52.530;13.390;2022-11-15T21:39:30;8.60;99.90
19728;DHT22;10015;52.530;13.390;2022-11-15T21:41:59;8.50;99.90
19728;DHT22;10015;52.530;13.390;2022-11-15T21:44:25;8.60;99.90
19728;DHT22;10015;52.530;13.390;2022-11-15T21:46:51;8.60;99.90
19728;DHT22;10015;52.530;13.390;2022-11-15T21:49:17;8.70;99.90
19728;DHT22;10015;52.530;13.390;2022-11-15T21:51:43;8.60;99.90
19728;DHT22;10015;52.530;13.390;2022-11-15T21:54:09;8.60;99.90
19728;DHT22;10015;52.530;13.390;2022-11-15T21:56:36;8.60;99.90
19728;DHT22;10015;52.530;13.390;2022-11-15T21:59:02;8.60;99.90
19728;DHT22;10015;52.530;13.390;2022-11-15T22:01:28;8.50;99.90
19728;DHT22;10015;52.530;13.390;2022-11-15T22:04:13;8.40;99.90
19728;DHT22;10015;52.530;13.390;2022-11-15T22:06:40;8.20;99.90
19728;DHT22;10015;52.530;13.390;2022-11-15T22:09:06;8.20;99.90
19728;DHT22;10015;52.530;13.390;2022-11-15T22:11:33;8.20;99.90
19728;DHT22;10015;52.530;13.390;2022-11-15T22:13:59;8.20;99.90
19728;DHT22;10015;52.530;13.390;2022-11-15T22:16:26;8.30;99.90
19728;DHT22;10015;52.530;13.390;2022-11-15T22:18:52;8.30;99.90
19728;DHT22;10015;52.530;13.390;2022-11-15T22:21:18;8.20;99.90
19728;DHT22;10015;52.530;13.390;2022-11-15T22:23:44;8.20;99.90
19728;DHT22;10015;52.530;13.390;2022-11-15T22:26:13;8.20;99.90
19728;DHT22;10015;52.530;13.390;2022-11-15T22:28:40;8.10;99.90
19728;DHT22;10015;52.530;13.390;2022-11-15T22:31:06;8.10;99.90
19728;DHT22;10015;52.530;13.390;2022-11-15T22:33:33;8.20;99.90
19728;DHT22;10015;52.530;13.390;2022-11-15T22:36:00;8.20;99.90
19728;DHT22;10015;52.530;13.390;2022-11-15T22:38:26;8.10;99.90
19728;DHT22;10015;52.530;13.390;2022-11-15T22:40:52;8.00;99.90
19728;DHT22;10015;52.530;13.390;2022-11-15T22:43:20;8.00;99.90
19728;DHT22;10015;52.530;13.390;2022-11-15T22:45:52;8.00;99.90
19728;DHT22;10015;52.530;13.390;2022-11-15T22:48:21;8.00;99.90
19728;DHT22;10015;52.530;13.390;2022-11-15T22:50:48;7.80;99.90
19728;DHT22;10015;52.530;13.390;2022-11-15T22:53:18;7.80;99.90
19728;DHT22;10015;52.530;13.390;2022-11-15T22:55:53;7.70;99.90
19728;DHT22;10015;52.530;13.390;2022-11-15T22:58:20;7.70;99.90